Time;durP1;ratioP1;P1;durP2;ratioP2;P2;SDS_P1;SDS_P2;PMS_P1;PMS_P2;Temp;Humidity;BMP_temperature;BMP_pressure;BME280_temperature;BME280_humidity;BME280_pressure;Samples;Min_cycle;Max_cycle;Signal;HPM_P1;HPM_P2
2022/11/26 00:00:59;;;;;;;29.85;6.50;;;4.70;99.90;;;;;;6158570;23;20103;-83
2022/11/26 00:03:25;;;;;;;46.88;7.07;;;4.60;99.90;;;;;;6162424;23;20012;-81
2022/11/26 00:05:56;;;;;;;40.83;6.55;;;4.50;99.90;;;;;;6191041;23;20028;-82
2022/11/26 00:08:33;;;;;;;29.27;6.10;;;4.70;99.90;;;;;;6223931;23;20101;-82
2022/11/26 00:10:59;;;;;;;33.30;6.25;;;4.40;99.90;;;;;;6248087;23;20068;-82
2022/11/26 00:13:27;;;;;;;26.88;6.20;;;4.50;99.90;;;;;;6192510;23;20044;-85
2022/11/26 00:15:53;;;;;;;24.63;6.55;;;4.50;99.90;;;;;;6190442;23;20008;-84
2022/11/26 00:18:22;;;;;;;38.78;6.50;;;4.50;99.90;;;;;;6189710;22;20085;-83
2022/11/26 00:20:52;;;;;;;29.17;6.28;;;4.30;99.90;;;;;;6189036;23;20093;-83
2022/11/26 00:23:24;;;;;;;26.67;7.00;;;4.40;99.90;;;;;;6216027;23;20407;-82
2022/11/26 00:25:57;;;;;;;38.70;7.43;;;4.30;99.90;;;;;;6215177;23;20091;-85
2022/11/26 00:28:31;;;;;;;38.10;8.02;;;4.50;99.90;;;;;;6188317;23;20012;-84
2022/11/26 00:31:00;;;;;;;38.92;8.23;;;4.40;99.90;;;;;;6189534;23;20074;-82
2022/11/26 00:33:27;;;;;;;39.28;7.70;;;4.30;99.90;;;;;;6188871;23;20012;-84
2022/11/26 00:35:56;;;;;;;44.35;8.43;;;4.30;99.90;;;;;;6212502;23;20162;-82
2022/11/26 00:38:22;;;;;;;29.90;7.00;;;4.40;99.90;;;;;;6212964;23;20044;-81
2022/11/26 00:40:51;;;;;;;38.58;7.63;;;4.30;99.90;;;;;;6214347;23;20039;-86
2022/11/26 00:43:17;;;;;;;31.08;7.47;;;4.40;99.90;;;;;;6189283;23;20031;-85
2022/11/26 00:45:44;;;;;;;41.75;7.45;;;4.40;99.90;;;;;;6213752;23;20138;-82
2022/11/26 00:48:09;;;;;;;29.25;7.38;;;4.40;99.90;;;;;;6190686;23;20023;-82
2022/11/26 00:50:46;;;;;;;28.20;6.88;;;4.30;99.90;;;;;;6191849;23;20039;-83
2022/11/26 00:53:15;;;;;;;35.60;7.20;;;4.30;99.90;;;;;;6192900;23;20016;-81
2022/11/26 00:55:44;;;;;;;33.33;7.88;;;4.20;99.90;;;;;;6226681;23;20047;-84
2022/11/26 00:58:23;;;;;;;32.75;7.45;;;4.10;99.90;;;;;;6205890;23;20016;-83
2022/11/26 01:00:54;;;;;;;33.20;8.02;;;4.30;99.90;;;;;;6196316;23;20016;-82
2022/11/26 01:03:19;;;;;;;32.78;7.45;;;4.30;99.90;;;;;;6246381;23;20023;-81
2022/11/26 01:05:52;;;;;;;31.65;7.72;;;4.30;99.90;;;;;;6211556;23;20388;-84
2022/11/26 01:08:38;;;;;;;32.85;8.18;;;4.30;99.90;;;;;;6237010;23;20012;-83
2022/11/26 01:11:04;;;;;;;31.85;7.47;;;4.10;99.90;;;;;;6184684;23;20095;-86
2022/11/26 01:13:30;;;;;;;23.40;6.68;;;4.10;99.90;;;;;;6189109;23;20100;-85
2022/11/26 01:15:58;;;;;;;35.55;8.05;;;4.20;99.90;;;;;;6215259;23;20040;-84
2022/11/26 01:18:24;;;;;;;35.78;8.55;;;4.10;99.90;;;;;;6191216;22;20008;-82
2022/11/26 01:20:50;;;;;;;32.70;8.70;;;4.10;99.90;;;;;;6193113;23;20331;-86
2022/11/26 01:23:18;;;;;;;30.08;7.38;;;4.20;99.90;;;;;;6216991;23;20435;-82
2022/11/26 01:25:45;;;;;;;31.17;8.07;;;4.00;99.90;;;;;;6246065;23;20431;-81
2022/11/26 01:28:17;;;;;;;38.58;8.05;;;4.20;99.90;;;;;;6222441;23;20012;-84
2022/11/26 01:30:43;;;;;;;34.97;8.18;;;4.00;99.90;;;;;;6192079;23;20012;-85
2022/11/26 01:33:15;;;;;;;36.53;8.45;;;4.00;99.90;;;;;;6192268;23;20047;-83
2022/11/26 01:35:41;;;;;;;36.60;8.32;;;4.00;99.90;;;;;;6217588;23;20440;-87
2022/11/26 01:38:13;;;;;;;28.73;7.68;;;3.90;99.90;;;;;;6190910;23;20047;-84
2022/11/26 01:40:50;;;;;;;28.50;7.53;;;4.10;99.90;;;;;;6167900;23;20142;-87
2022/11/26 01:43:27;;;;;;;30.48;7.93;;;4.00;99.90;;;;;;6191208;23;20016;-85
2022/11/26 01:49:34;;;;;;;30.77;8.05;;;3.90;99.90;;;;;;6245189;23;20026;-83
2022/11/26 01:52:10;;;;;;;29.20;8.60;;;3.80;99.90;;;;;;6218917;23;20012;-85
2022/11/26 01:54:39;;;;;;;49.63;9.82;;;3.80;99.90;;;;;;6217241;23;20013;-84
2022/11/26 01:57:17;;;;;;;47.25;9.40;;;4.00;99.90;;;;;;6191575;23;20016;-85
2022/11/26 01:59:47;;;;;;;35.22;8.57;;;3.90;99.90;;;;;;6214315;23;20054;-85
2022/11/26 02:02:13;;;;;;;35.58;9.45;;;3.90;99.90;;;;;;6187001;23;20106;-85
2022/11/26 02:04:49;;;;;;;40.45;9.60;;;4.00;99.90;;;;;;6237561;23;20116;-82
2022/11/26 02:07:15;;;;;;;45.03;9.90;;;3.80;99.90;;;;;;6241155;23;20319;-83
2022/11/26 02:09:42;;;;;;;36.63;9.05;;;4.00;99.90;;;;;;6189243;23;20178;-86
2022/11/26 02:12:08;;;;;;;46.22;9.07;;;4.00;99.90;;;;;;6187486;23;20012;-86
2022/11/26 02:14:58;;;;;;;42.30;9.48;;;4.00;99.90;;;;;;6240100;23;20342;-81
2022/11/26 02:17:24;;;;;;;44.05;8.50;;;3.90;99.90;;;;;;6212535;23;20300;-84
2022/11/26 02:20:28;;;;;;;31.55;8.15;;;3.90;99.90;;;;;;6191167;23;20711;-83
2022/11/26 02:23:39;;;;;;;34.90;8.57;;;3.70;99.90;;;;;;6188456;23;20133;-84
2022/11/26 02:26:17;;;;;;;33.05;7.72;;;3.60;99.90;;;;;;6170237;23;20643;-85
2022/11/26 02:29:08;;;;;;;31.17;8.23;;;3.70;99.90;;;;;;6216787;23;20016;-86
2022/11/26 02:35:16;;;;;;;31.67;8.75;;;3.40;99.90;;;;;;6243523;23;20024;-85
2022/11/26 02:37:51;;;;;;;25.65;8.68;;;3.50;99.90;;;;;;6197984;23;20071;-85
2022/11/26 02:40:17;;;;;;;31.92;8.77;;;3.70;99.90;;;;;;6197162;23;20024;-82
2022/11/26 02:42:43;;;;;;;29.08;8.73;;;3.50;99.90;;;;;;6192811;23;20344;-82
2022/11/26 02:45:16;;;;;;;34.67;8.57;;;3.50;99.90;;;;;;6242067;23;20055;-83
2022/11/26 02:47:44;;;;;;;32.25;8.82;;;3.40;99.90;;;;;;6191192;23;20012;-84
2022/11/26 02:50:30;;;;;;;33.63;9.25;;;3.30;99.90;;;;;;6193758;23;20090;-82
2022/11/26 02:52:57;;;;;;;;;;;3.30;99.90;;;;;;6253233;23;20012;-84
2022/11/26 02:55:26;;;;;;;36.15;10.10;;;3.50;99.90;;;;;;6196458;23;20402;-81
2022/11/26 02:57:53;;;;;;;39.72;10.80;;;3.40;99.90;;;;;;6196414;23;20035;-83
2022/11/26 03:00:57;;;;;;;39.33;9.95;;;3.50;99.90;;;;;;6194719;23;20343;-85
2022/11/26 03:03:31;;;;;;;33.67;11.02;;;3.60;99.90;;;;;;6188302;23;20019;-81
2022/11/26 03:06:11;;;;;;;40.22;11.15;;;3.40;99.90;;;;;;6190399;23;20032;-84
2022/11/26 03:08:36;;;;;;;41.70;11.50;;;3.50;99.90;;;;;;6215137;23;20160;-85
2022/11/26 03:11:03;;;;;;;42.80;11.45;;;3.60;99.90;;;;;;6215503;23;20027;-86
2022/11/26 03:13:29;;;;;;;48.60;12.13;;;3.50;99.90;;;;;;6187760;23;20013;-85
2022/11/26 03:15:54;;;;;;;47.72;12.02;;;3.40;99.90;;;;;;6187698;23;20015;-84
2022/11/26 03:18:20;;;;;;;35.35;11.40;;;3.60;99.90;;;;;;6212949;22;20020;-82
2022/11/26 03:20:47;;;;;;;53.67;11.48;;;3.40;99.90;;;;;;6189163;23;20016;-83
2022/11/26 03:23:13;;;;;;;46.92;11.65;;;3.40;99.90;;;;;;6186146;23;20774;-84
2022/11/26 03:25:38;;;;;;;36.17;10.15;;;3.50;99.90;;;;;;6184951;23;20020;-84
2022/11/26 03:28:06;;;;;;;53.17;12.20;;;3.40;99.90;;;;;;6211391;23;20020;-84
2022/11/26 03:30:32;;;;;;;44.72;11.63;;;3.50;99.90;;;;;;6188912;23;20012;-87
2022/11/26 03:32:58;;;;;;;37.75;11.23;;;3.60;99.90;;;;;;6240753;23;20017;-87
2022/11/26 03:35:23;;;;;;;43.40;11.25;;;3.50;99.90;;;;;;6186302;23;20020;-83
2022/11/26 03:37:49;;;;;;;33.70;11.35;;;3.60;99.90;;;;;;6242620;23;20406;-84
2022/11/26 03:40:16;;;;;;;42.53;12.10;;;3.40;99.90;;;;;;6191256;23;20012;-87
2022/11/26 03:42:43;;;;;;;35.60;11.63;;;3.50;99.90;;;;;;6195002;23;20015;-82
2022/11/26 03:45:47;;;;;;;38.45;11.07;;;3.60;99.90;;;;;;6197780;23;20395;-81
2022/11/26 03:48:13;;;;;;;33.50;11.48;;;3.40;99.90;;;;;;6217739;23;20027;-84
2022/11/26 03:50:42;;;;;;;47.00;11.52;;;3.40;99.90;;;;;;6191877;23;20095;-83
2022/11/26 03:53:08;;;;;;;49.60;12.52;;;3.40;99.90;;;;;;6216970;23;20026;-83
2022/11/26 03:55:34;;;;;;;36.47;10.77;;;3.60;99.90;;;;;;6222002;23;20043;-81
2022/11/26 03:58:00;;;;;;;35.45;11.10;;;3.40;99.90;;;;;;6221444;23;20076;-83
2022/11/26 04:00:26;;;;;;;39.13;10.88;;;3.50;99.90;;;;;;6165021;23;20312;-86
2022/11/26 04:02:52;;;;;;;35.35;10.30;;;3.30;99.90;;;;;;6189426;23;20016;-82
2022/11/26 04:05:17;;;;;;;36.58;10.73;;;3.30;99.90;;;;;;6181717;23;20024;-84
2022/11/26 04:07:43;;;;;;;37.28;10.40;;;3.30;99.90;;;;;;6183184;23;20122;-82
2022/11/26 04:10:10;;;;;;;35.00;11.20;;;3.20;99.90;;;;;;6205903;23;20150;-83
2022/11/26 04:12:36;;;;;;;28.15;10.07;;;3.30;99.90;;;;;;6207058;23;20035;-88
2022/11/26 04:15:03;;;;;;;37.72;10.85;;;3.30;99.90;;;;;;6207960;23;20107;-82
2022/11/26 04:17:28;;;;;;;41.28;10.88;;;3.40;99.90;;;;;;6209736;23;20031;-84
2022/11/26 04:19:54;;;;;;;34.67;11.13;;;3.20;99.90;;;;;;6209552;23;20440;-82
2022/11/26 04:22:19;;;;;;;33.55;10.73;;;3.30;99.90;;;;;;6184408;23;20432;-85
2022/11/26 04:24:45;;;;;;;40.70;10.95;;;3.40;99.90;;;;;;6186367;23;20095;-82
2022/11/26 04:27:11;;;;;;;38.00;11.45;;;3.00;99.90;;;;;;6213665;23;20024;-86
2022/11/26 04:29:36;;;;;;;46.17;11.65;;;3.30;99.90;;;;;;6214016;23;20048;-82
2022/11/26 04:32:43;;;;;;;41.38;11.07;;;3.20;99.90;;;;;;6189761;23;20012;-80
2022/11/26 04:35:09;;;;;;;34.85;11.20;;;3.20;99.90;;;;;;6187277;23;20042;-85
2022/11/26 04:37:35;;;;;;;33.45;11.20;;;3.30;99.90;;;;;;6214821;23;20355;-84
2022/11/26 04:40:00;;;;;;;36.53;11.15;;;3.10;99.90;;;;;;6203800;23;20042;-85
2022/11/26 04:42:26;;;;;;;35.63;12.15;;;3.30;99.90;;;;;;6217269;23;20525;-85
2022/11/26 04:44:51;;;;;;;41.25;11.90;;;3.20;99.90;;;;;;6183631;23;20015;-87
2022/11/26 04:47:17;;;;;;;39.22;12.38;;;3.30;99.90;;;;;;6209798;23;20367;-85
2022/11/26 04:49:43;;;;;;;36.10;12.38;;;3.20;99.90;;;;;;6209582;23;20055;-85
2022/11/26 04:52:09;;;;;;;36.42;12.50;;;3.20;99.90;;;;;;6210183;23;20005;-83
2022/11/26 04:54:35;;;;;;;42.47;13.10;;;3.20;99.90;;;;;;6184122;23;20042;-86
2022/11/26 04:57:02;;;;;;;38.97;13.63;;;3.20;99.90;;;;;;6210868;23;20087;-83
2022/11/26 04:59:27;;;;;;;48.55;12.82;;;3.40;99.90;;;;;;6186883;23;20020;-84
2022/11/26 05:01:53;;;;;;;44.47;12.88;;;3.20;99.90;;;;;;6209723;23;20004;-81
2022/11/26 05:04:19;;;;;;;42.92;14.00;;;3.30;99.90;;;;;;6202321;23;20024;-87
2022/11/26 05:06:45;;;;;;;37.08;12.40;;;3.20;99.90;;;;;;6159915;23;20031;-84
2022/11/26 05:09:10;;;;;;;56.50;14.27;;;3.10;99.90;;;;;;6184384;23;20017;-83
2022/11/26 05:11:36;;;;;;;38.67;12.75;;;3.30;99.90;;;;;;6212791;23;20087;-83
2022/11/26 05:14:02;;;;;;;35.05;13.00;;;3.30;99.90;;;;;;6212255;23;20017;-81
2022/11/26 05:16:28;;;;;;;40.40;13.13;;;3.30;99.90;;;;;;6163023;23;20015;-83
2022/11/26 05:18:53;;;;;;;43.30;12.45;;;3.30;99.90;;;;;;6161409;23;20009;-82
2022/11/26 05:21:20;;;;;;;35.60;11.77;;;3.10;99.90;;;;;;6188235;23;20361;-83
2022/11/26 05:23:46;;;;;;;45.67;14.27;;;3.20;99.90;;;;;;6187152;23;20055;-82
2022/11/26 05:26:12;;;;;;;49.72;14.35;;;3.20;99.90;;;;;;6186786;23;20020;-83
2022/11/26 05:28:38;;;;;;;39.33;12.95;;;3.10;99.90;;;;;;6212018;23;20334;-86
2022/11/26 05:31:04;;;;;;;33.58;13.23;;;3.00;99.90;;;;;;6186172;23;20013;-86
2022/11/26 05:33:30;;;;;;;41.55;13.57;;;3.10;99.90;;;;;;6161120;23;20016;-83
2022/11/26 05:35:55;;;;;;;36.72;13.32;;;3.20;99.90;;;;;;6212621;23;20012;-85
2022/11/26 05:38:22;;;;;;;44.58;14.98;;;3.20;99.90;;;;;;6162608;23;20644;-85
2022/11/26 05:40:47;;;;;;;51.75;14.48;;;3.20;99.90;;;;;;6188090;23;20017;-84
2022/11/26 05:43:13;;;;;;;37.67;13.55;;;3.40;99.90;;;;;;6188239;23;20016;-83
2022/11/26 05:45:39;;;;;;;42.25;14.23;;;3.40;99.90;;;;;;6189049;23;20016;-83
2022/11/26 05:48:05;;;;;;;38.75;13.95;;;3.20;99.90;;;;;;6188673;23;20601;-84
2022/11/26 05:50:32;;;;;;;36.40;13.85;;;3.40;99.90;;;;;;6185688;23;20021;-85
2022/11/26 05:52:57;;;;;;;46.85;15.18;;;3.10;99.90;;;;;;6162250;23;20025;-87
2022/11/26 05:55:23;;;;;;;43.28;15.15;;;3.20;99.90;;;;;;6159693;23;20012;-86
2022/11/26 05:57:49;;;;;;;38.95;14.82;;;3.20;99.90;;;;;;6186362;23;20786;-87
2022/11/26 06:00:15;;;;;;;49.03;16.13;;;3.20;99.90;;;;;;6190458;23;20032;-82
2022/11/26 06:02:41;;;;;;;41.88;15.27;;;3.00;99.90;;;;;;6165458;23;20095;-82
2022/11/26 06:05:07;;;;;;;47.00;14.80;;;3.20;99.90;;;;;;6184335;23;20032;-84
2022/11/26 06:07:34;;;;;;;50.40;16.27;;;3.10;99.90;;;;;;6165766;23;20463;-82
2022/11/26 06:09:59;;;;;;;46.60;15.60;;;3.10;99.90;;;;;;6210952;23;20016;-84
2022/11/26 06:12:26;;;;;;;50.17;15.50;;;3.00;99.90;;;;;;6185602;23;20448;-84
2022/11/26 06:14:55;;;;;;;59.15;16.58;;;3.10;99.90;;;;;;6212548;23;20070;-82
2022/11/26 06:17:21;;;;;;;45.35;16.95;;;3.00;99.90;;;;;;6185898;23;20009;-82
2022/11/26 06:19:46;;;;;;;43.15;15.50;;;3.00;99.90;;;;;;6161979;23;20012;-84
2022/11/26 06:22:12;;;;;;;49.40;15.95;;;3.10;99.90;;;;;;6159820;23;20071;-82
2022/11/26 06:24:38;;;;;;;37.85;15.18;;;3.00;99.90;;;;;;6160426;23;20077;-83
2022/11/26 06:27:03;;;;;;;51.38;17.52;;;3.00;99.90;;;;;;6185800;23;20095;-83
2022/11/26 06:29:29;;;;;;;40.85;16.05;;;3.00;99.90;;;;;;6161845;23;20122;-82
2022/11/26 06:31:55;;;;;;;50.50;17.58;;;2.80;99.90;;;;;;6212357;23;20012;-82
2022/11/26 06:34:21;;;;;;;50.80;17.80;;;2.90;99.90;;;;;;6186283;23;20436;-84
2022/11/26 06:36:46;;;;;;;44.40;16.85;;;2.80;99.90;;;;;;6186077;23;20008;-86
2022/11/26 06:39:12;;;;;;;57.08;18.80;;;3.00;99.90;;;;;;6162278;23;20009;-84
2022/11/26 06:41:41;;;;;;;51.75;17.63;;;3.00;99.90;;;;;;6186746;23;20021;-82
2022/11/26 06:44:06;;;;;;;54.78;17.95;;;2.90;99.90;;;;;;6184513;23;20471;-82
2022/11/26 06:46:34;;;;;;;56.97;18.00;;;2.90;99.90;;;;;;6183753;23;20023;-85
2022/11/26 06:49:01;;;;;;;54.67;18.35;;;2.90;99.90;;;;;;6183231;23;20020;-83
2022/11/26 06:51:27;;;;;;;55.33;18.98;;;2.80;99.90;;;;;;6161137;23;20017;-84
2022/11/26 06:53:53;;;;;;;48.75;16.75;;;3.00;99.90;;;;;;6181998;23;20020;-81
2022/11/26 06:56:19;;;;;;;49.20;16.42;;;2.70;99.90;;;;;;6185762;23;20432;-82
2022/11/26 06:58:46;;;;;;;54.63;16.92;;;2.90;99.90;;;;;;6185843;23;20019;-84
2022/11/26 07:01:25;;;;;;;58.78;18.30;;;2.70;99.90;;;;;;6159097;23;20063;-87
2022/11/26 07:03:52;;;;;;;54.00;19.10;;;2.90;99.90;;;;;;6181264;23;20025;-83
2022/11/26 07:06:22;;;;;;;48.05;16.95;;;2.90;99.90;;;;;;6183759;23;20352;-82
2022/11/26 07:08:49;;;;;;;47.47;17.83;;;2.80;99.90;;;;;;6158254;23;20167;-85
2022/11/26 07:11:15;;;;;;;58.35;19.20;;;2.90;99.90;;;;;;6183026;23;20019;-84
2022/11/26 07:13:41;;;;;;;58.40;18.80;;;2.90;99.90;;;;;;6210034;23;20008;-84
2022/11/26 07:16:07;;;;;;;48.88;18.65;;;2.90;99.90;;;;;;6161964;23;20013;-86
2022/11/26 07:18:33;;;;;;;51.60;18.58;;;2.90;99.90;;;;;;6183757;23;20008;-83
2022/11/26 07:21:08;;;;;;;76.10;19.33;;;2.90;99.90;;;;;;6162015;23;20075;-85
2022/11/26 07:23:33;;;;;;;50.15;20.13;;;2.90;99.90;;;;;;6185215;23;20044;-83
2022/11/26 07:26:00;;;;;;;64.72;21.15;;;3.10;99.90;;;;;;6189602;23;20017;-84
2022/11/26 07:28:28;;;;;;;60.72;19.98;;;3.00;99.90;;;;;;6168134;23;20019;-83
2022/11/26 07:30:54;;;;;;;64.50;21.75;;;3.10;99.90;;;;;;6163285;23;20059;-82
2022/11/26 07:33:19;;;;;;;75.80;21.45;;;3.00;99.90;;;;;;6188936;23;20506;-85
2022/11/26 07:35:47;;;;;;;67.60;22.80;;;3.10;99.90;;;;;;6165199;23;20073;-82
2022/11/26 07:38:12;;;;;;;59.72;21.48;;;3.20;99.90;;;;;;6189479;23;20032;-79
2022/11/26 07:40:38;;;;;;;70.00;23.40;;;3.40;99.90;;;;;;6214780;23;20016;-85
2022/11/26 07:43:04;;;;;;;69.93;22.83;;;3.50;99.90;;;;;;6160721;23;20535;-83
2022/11/26 07:45:29;;;;;;;73.47;23.27;;;3.60;99.90;;;;;;6187784;23;20512;-88
2022/11/26 07:48:13;;;;;;;65.28;21.85;;;3.50;99.90;;;;;;6187249;23;20020;-85
2022/11/26 07:50:42;;;;;;;65.82;21.38;;;3.50;99.90;;;;;;6192888;23;20017;-84
2022/11/26 07:53:08;;;;;;;67.97;22.13;;;3.50;99.90;;;;;;6191126;23;20055;-82
2022/11/26 07:55:34;;;;;;;61.08;21.20;;;3.60;99.90;;;;;;6167429;23;20017;-82
2022/11/26 07:57:59;;;;;;;61.08;23.15;;;3.50;99.90;;;;;;6190707;23;20013;-81
2022/11/26 08:00:25;;;;;;;59.42;20.88;;;3.50;99.90;;;;;;6188473;23;20017;-84
2022/11/26 08:02:51;;;;;;;56.28;20.15;;;3.50;99.90;;;;;;6187806;23;20020;-85
2022/11/26 08:05:18;;;;;;;54.42;20.90;;;3.70;99.90;;;;;;6207657;23;20025;-85
2022/11/26 08:07:44;;;;;;;59.17;21.00;;;3.60;99.90;;;;;;6187814;23;20016;-87
2022/11/26 08:10:10;;;;;;;63.25;22.05;;;3.60;99.90;;;;;;6215964;23;20016;-84
2022/11/26 08:12:36;;;;;;;60.30;20.50;;;3.70;99.90;;;;;;6191095;23;20040;-85
2022/11/26 08:15:02;;;;;;;60.03;21.58;;;3.80;99.90;;;;;;6216874;23;20051;-84
2022/11/26 08:21:09;;;;;;;66.40;22.10;;;3.80;99.90;;;;;;6221933;23;20012;-84
2022/11/26 08:23:35;;;;;;;60.75;20.60;;;3.70;99.90;;;;;;6218648;23;20016;-81
2022/11/26 08:26:09;;;;;;;59.85;20.27;;;4.10;99.90;;;;;;6213458;23;20817;-81
2022/11/26 08:28:35;;;;;;;63.53;21.50;;;3.90;99.90;;;;;;6182791;23;20051;-84
2022/11/26 08:31:03;;;;;;;67.40;21.05;;;4.10;99.90;;;;;;6182030;23;20081;-83
2022/11/26 08:33:29;;;;;;;61.35;20.92;;;3.90;99.90;;;;;;6182249;23;20040;-87
2022/11/26 08:35:55;;;;;;;59.65;21.70;;;4.20;99.90;;;;;;6211458;23;20084;-83
2022/11/26 08:38:21;;;;;;;67.68;20.92;;;4.10;99.90;;;;;;6209591;23;20020;-86
2022/11/26 08:40:47;;;;;;;56.33;20.67;;;4.10;99.90;;;;;;6209196;23;20016;-82
2022/11/26 08:43:12;;;;;;;68.40;22.38;;;4.10;99.90;;;;;;6210335;23;20106;-85
2022/11/26 08:45:38;;;;;;;65.13;21.88;;;4.30;99.90;;;;;;6184128;23;20084;-84
2022/11/26 08:48:05;;;;;;;68.00;22.50;;;4.40;99.90;;;;;;6208880;23;20047;-83
2022/11/26 08:50:33;;;;;;;54.63;21.35;;;4.40;99.90;;;;;;6211672;23;20024;-84
2022/11/26 08:52:58;;;;;;;64.57;21.77;;;4.60;99.90;;;;;;6208306;23;20397;-85
2022/11/26 08:55:24;;;;;;;67.47;22.35;;;4.50;99.90;;;;;;6184007;23;20032;-82
2022/11/26 08:57:50;;;;;;;57.33;21.90;;;4.40;99.90;;;;;;6184595;23;20113;-86
2022/11/26 09:00:16;;;;;;;58.63;21.90;;;4.50;99.90;;;;;;6181984;23;20012;-83
2022/11/26 09:02:41;;;;;;;56.15;21.52;;;4.60;99.90;;;;;;6210014;23;20025;-84
2022/11/26 09:05:10;;;;;;;59.78;21.50;;;4.90;99.90;;;;;;6211436;23;20021;-82
2022/11/26 09:07:36;;;;;;;54.85;21.48;;;4.70;99.90;;;;;;6212179;23;20151;-84
2022/11/26 09:10:02;;;;;;;63.97;23.00;;;4.70;99.90;;;;;;6189163;23;20361;-84
2022/11/26 09:12:28;;;;;;;78.80;25.10;;;5.00;99.90;;;;;;6213890;23;20005;-81
2022/11/26 09:14:54;;;;;;;68.28;22.95;;;5.10;99.90;;;;;;6211197;23;20358;-82
2022/11/26 09:17:20;;;;;;;53.88;22.15;;;5.00;99.90;;;;;;6186463;23;20391;-83
2022/11/26 09:19:47;;;;;;;64.47;23.33;;;5.10;99.90;;;;;;6185494;23;20308;-83
2022/11/26 09:22:12;;;;;;;63.83;21.92;;;5.30;99.90;;;;;;6214625;23;20020;-84
2022/11/26 09:24:38;;;;;;;63.25;21.35;;;5.40;99.90;;;;;;6183482;23;20016;-82
2022/11/26 09:27:04;;;;;;;69.70;21.38;;;5.20;99.90;;;;;;6206359;23;20020;-84
2022/11/26 09:29:30;;;;;;;56.88;21.15;;;5.30;99.90;;;;;;6208766;23;20024;-82
2022/11/26 09:31:55;;;;;;;58.47;20.52;;;5.40;99.90;;;;;;6183649;23;20023;-84
2022/11/26 09:34:21;;;;;;;57.42;19.90;;;5.40;99.90;;;;;;6212034;23;20340;-83
2022/11/26 09:36:47;;;;;;;55.83;18.73;;;5.40;99.90;;;;;;6188028;23;20312;-86
2022/11/26 09:39:13;;;;;;;60.20;19.38;;;5.50;99.90;;;;;;6214769;23;20013;-83
2022/11/26 09:41:59;;;;;;;67.93;20.35;;;5.70;99.90;;;;;;6187502;23;20009;-83
2022/11/26 09:44:40;;;;;;;56.40;19.02;;;5.80;99.90;;;;;;6212033;23;20017;-82
2022/11/26 09:47:49;;;;;;;52.03;18.35;;;5.90;99.90;;;;;;6213264;23;20017;-85
2022/11/26 09:50:22;;;;;;;50.78;18.85;;;5.80;99.90;;;;;;6210864;23;20013;-83
2022/11/26 09:52:50;;;;;;;65.25;19.45;;;5.90;99.90;;;;;;6184615;23;20017;-82
2022/11/26 09:55:18;;;;;;;59.20;17.50;;;6.00;99.90;;;;;;6206773;23;20039;-84
2022/11/26 09:57:51;;;;;;;60.83;17.75;;;6.00;99.90;;;;;;6185571;23;20071;-84
2022/11/26 10:00:31;;;;;;;58.08;17.75;;;6.20;99.90;;;;;;6211104;23;20015;-82
2022/11/26 10:02:57;;;;;;;52.65;18.00;;;6.20;99.90;;;;;;6188087;23;20309;-84
2022/11/26 10:05:43;;;;;;;55.38;17.30;;;6.20;99.90;;;;;;6240927;23;20052;-84
2022/11/26 10:08:35;;;;;;;61.88;18.20;;;6.50;99.90;;;;;;6215935;23;20058;-85
2022/11/26 10:11:04;;;;;;;54.25;16.52;;;6.50;99.90;;;;;;6193444;23;20458;-81
2022/11/26 10:13:47;;;;;;;45.65;16.05;;;6.40;99.90;;;;;;6220134;23;20022;-82
2022/11/26 10:16:37;;;;;;;62.67;17.33;;;6.50;99.90;;;;;;6219745;23;20027;-81
2022/11/26 10:19:08;;;;;;;57.20;17.08;;;6.60;99.90;;;;;;6196953;23;20012;-82
2022/11/26 10:21:45;;;;;;;50.65;15.90;;;6.50;99.90;;;;;;6194429;23;20012;-83
2022/11/26 10:24:14;;;;;;;53.17;16.83;;;6.70;99.90;;;;;;6219111;23;20304;-84
2022/11/26 10:26:40;;;;;;;54.95;16.27;;;6.70;99.90;;;;;;6246495;23;20107;-84
2022/11/26 10:29:18;;;;;;;54.00;16.10;;;6.80;99.90;;;;;;6191149;23;20008;-83
2022/11/26 10:35:49;;;;;;;50.45;15.80;;;6.90;99.90;;;;;;6249434;23;20073;-78
2022/11/26 10:38:16;;;;;;;49.50;16.52;;;6.90;99.90;;;;;;6204191;23;20012;-79
2022/11/26 10:40:42;;;;;;;67.53;23.10;;;7.10;99.90;;;;;;6226380;23;20025;-82
2022/11/26 10:43:07;;;;;;;53.20;16.90;;;7.20;99.90;;;;;;6198192;23;20028;-79
2022/11/26 10:45:38;;;;;;;49.15;17.75;;;7.20;99.90;;;;;;6223718;23;20012;-80
2022/11/26 10:48:28;;;;;;;50.30;16.88;;;7.10;99.90;;;;;;6200930;23;20026;-82
2022/11/26 10:51:14;;;;;;;57.20;16.58;;;7.10;99.90;;;;;;6200912;23;20012;-82
2022/11/26 10:53:51;;;;;;;50.00;15.93;;;7.40;99.90;;;;;;6198113;23;20020;-80
2022/11/26 10:56:22;;;;;;;55.17;16.38;;;7.40;99.90;;;;;;6202825;23;20012;-78
2022/11/26 10:58:50;;;;;;;47.55;15.95;;;7.30;99.90;;;;;;6218975;23;20013;-81
2022/11/26 11:01:16;;;;;;;51.70;15.52;;;7.20;99.90;;;;;;6218927;23;20009;-82
2022/11/26 11:03:57;;;;;;;45.38;16.08;;;7.50;99.90;;;;;;6190200;23;20062;-80
2022/11/26 11:06:27;;;;;;;51.47;16.80;;;7.30;99.90;;;;;;6243116;23;20039;-83
2022/11/26 11:08:53;;;;;;;61.03;16.52;;;7.30;99.90;;;;;;6192260;23;20030;-82
2022/11/26 11:11:25;;;;;;;54.72;16.13;;;7.40;99.90;;;;;;6246060;23;20039;-82
2022/11/26 11:13:52;;;;;;;52.45;15.80;;;7.40;99.90;;;;;;6218446;23;20051;-82
2022/11/26 11:16:21;;;;;;;61.67;17.27;;;7.50;99.90;;;;;;6218083;23;20004;-81
2022/11/26 11:18:55;;;;;;;52.35;16.23;;;7.50;99.90;;;;;;6218463;23;20012;-84
2022/11/26 11:21:23;;;;;;;49.33;16.53;;;7.60;99.90;;;;;;6218761;23;20004;-81
2022/11/26 11:24:07;;;;;;;42.92;14.55;;;7.70;99.90;;;;;;6245274;23;20227;-82
2022/11/26 11:26:42;;;;;;;59.97;17.02;;;7.90;99.90;;;;;;6218133;23;20504;-81
2022/11/26 11:29:23;;;;;;;57.28;17.48;;;7.70;99.90;;;;;;6218537;23;20039;-82
2022/11/26 11:31:48;;;;;;;60.35;16.52;;;7.70;99.90;;;;;;6245648;23;20043;-82
2022/11/26 11:34:29;;;;;;;54.42;16.92;;;7.90;99.90;;;;;;6219574;23;20039;-82
2022/11/26 11:37:12;;;;;;;100.78;20.10;;;7.80;99.90;;;;;;6193827;23;20050;-81
2022/11/26 11:39:38;;;;;;;55.25;17.00;;;7.90;99.90;;;;;;6218464;23;20066;-83
2022/11/26 11:42:27;;;;;;;49.03;16.05;;;7.90;99.90;;;;;;6218660;23;20008;-81
2022/11/26 11:44:53;;;;;;;49.70;14.35;;;8.10;99.90;;;;;;6197239;23;20095;-82
2022/11/26 11:47:41;;;;;;;49.70;15.18;;;8.00;99.90;;;;;;6218483;23;20347;-81
2022/11/26 11:50:29;;;;;;;51.85;15.05;;;8.00;99.90;;;;;;6244880;23;20123;-81
2022/11/26 11:52:57;;;;;;;65.68;16.90;;;8.10;99.90;;;;;;6193429;23;20417;-82
2022/11/26 11:55:47;;;;;;;54.63;14.68;;;8.00;99.90;;;;;;6193291;23;20100;-80
2022/11/26 11:58:23;;;;;;;47.53;15.65;;;8.20;99.90;;;;;;6193413;23;20008;-80
2022/11/26 12:01:00;;;;;;;49.85;15.80;;;8.10;99.90;;;;;;6191984;23;20492;-81
2022/11/26 12:03:54;;;;;;;44.83;14.95;;;8.20;99.90;;;;;;6192444;23;20194;-81
2022/11/26 12:06:45;;;;;;;52.08;15.38;;;8.10;99.90;;;;;;6163241;23;20020;-81
2022/11/26 12:09:31;;;;;;;76.50;17.17;;;8.30;99.90;;;;;;6186863;23;20029;-83
2022/11/26 12:12:26;;;;;;;62.00;17.08;;;8.40;99.90;;;;;;6186301;23;20066;-79
2022/11/26 12:15:13;;;;;;;48.92;14.15;;;8.50;99.90;;;;;;6184826;23;20020;-81
2022/11/26 12:18:01;;;;;;;50.60;15.00;;;8.50;99.90;;;;;;6158457;23;20091;-82
2022/11/26 12:20:33;;;;;;;54.38;14.93;;;8.30;99.90;;;;;;6183240;23;20452;-82
2022/11/26 12:23:17;;;;;;;47.85;13.57;;;8.50;99.90;;;;;;6159383;23;20052;-83
2022/11/26 12:25:46;;;;;;;98.70;17.42;;;8.30;99.90;;;;;;6161461;23;20012;-82
2022/11/26 12:28:16;;;;;;;53.65;14.63;;;8.40;99.90;;;;;;6159291;23;20066;-83
2022/11/26 12:30:45;;;;;;;42.65;13.15;;;8.40;99.90;;;;;;6210855;23;20058;-84
2022/11/26 12:33:30;;;;;;;52.42;13.77;;;8.30;99.90;;;;;;6160475;23;20122;-85
2022/11/26 12:36:02;;;;;;;51.95;14.32;;;8.60;99.90;;;;;;6212120;23;20017;-81
2022/11/26 12:38:53;;;;;;;53.10;13.32;;;8.40;99.90;;;;;;6164800;23;20084;-82
2022/11/26 12:41:22;;;;;;;43.25;13.88;;;8.60;99.90;;;;;;6139595;23;20016;-83
2022/11/26 12:44:16;;;;;;;46.40;13.90;;;8.60;99.90;;;;;;6184271;23;20024;-82
2022/11/26 12:47:24;;;;;;;50.17;13.65;;;8.60;99.90;;;;;;6162807;23;20024;-82
2022/11/26 12:50:17;;;;;;;47.72;13.98;;;8.60;99.90;;;;;;6166014;23;20463;-81
2022/11/26 12:53:02;;;;;;;46.25;13.95;;;8.40;99.90;;;;;;6218051;23;20426;-84
2022/11/26 12:55:33;;;;;;;48.63;14.35;;;8.60;99.90;;;;;;6212970;23;20020;-82
2022/11/26 12:58:17;;;;;;;45.00;14.02;;;8.60;99.90;;;;;;6183936;23;20020;-82
2022/11/26 13:00:43;;;;;;;50.08;14.48;;;8.60;99.90;;;;;;6181357;23;20020;-84
2022/11/26 13:03:17;;;;;;;48.30;14.63;;;8.40;99.90;;;;;;6211069;23;20013;-83
2022/11/26 13:06:07;;;;;;;50.77;14.27;;;8.30;99.90;;;;;;6198303;23;20092;-85
2022/11/26 13:08:59;;;;;;;49.33;15.18;;;8.40;99.90;;;;;;6184538;23;20016;-82
2022/11/26 13:11:45;;;;;;;49.60;14.77;;;8.40;99.90;;;;;;6210599;23;20040;-83